EDT,Max TemperatureF,Mean TemperatureF,Min TemperatureF,Max Dew PointF,MeanDew PointF,Min DewpointF,Max Humidity, Mean Humidity, Min Humidity, Max Sea Level PressureIn, Mean Sea Level PressureIn, Min Sea Level PressureIn, Max VisibilityMiles, Mean VisibilityMiles, Min VisibilityMiles, Max Wind SpeedMPH, Mean Wind SpeedMPH, Max Gust SpeedMPH,PrecipitationIn, CloudCover, Events, WindDirDegrees
2013-6-1,91,77,62,68,66,61,93,70,47,30.02,29.96,29.90,10,9,5,17,7,25,0.00,1,,217
2013-6-2,88,80,72,71,67,65,79,65,50,29.89,29.83,29.79,10,9,0,28,10,41,0.57,4,Rain,217
2013-6-3,79,71,62,68,63,53,97,76,54,29.93,29.85,29.81,10,8,2,13,5,17,0.49,7,Rain,313
2013-6-4,75,64,53,48,43,40,71,49,27,30.13,30.04,29.94,10,10,10,17,8,21,0.00,1,,337
2013-6-5,77,63,48,51,44,37,77,57,36,30.22,30.14,30.09,10,10,10,13,4,20,0.00,0,,108
2013-6-6,70,62,54,61,55,48,93,75,57,30.13,30.05,29.96,10,9,4,13,7,21,0.37,5,Rain,92
2013-6-7,64,62,60,63,60,57,100,95,90,29.96,29.81,29.64,10,6,2,21,10,28,1.82,8,Rain,61
2013-6-8,76,67,58,63,60,58,97,79,60,30.08,29.86,29.67,10,10,9,12,6,17,0.01,6,Rain,280
2013-6-9,81,67,53,62,57,54,100,71,42,30.19,30.14,30.10,10,10,8,14,3,17,0.00,1,Rain,241
2013-6-10,73,68,63,70,64,61,100,91,81,30.14,29.99,29.77,10,5,1,14,8,21,1.28,8,Rain,76
2013-6-11,79,73,67,70,65,59,97,79,60,29.77,29.73,29.68,10,10,7,23,11,31,0.01,5,,248
2013-6-12,80,72,64,59,56,54,78,59,39,29.85,29.82,29.77,10,10,10,16,7,21,0.00,1,,303
2013-6-13,73,65,57,64,60,54,97,88,78,29.83,29.60,29.45,10,7,1,20,8,25,1.62,7,Rain,63
2013-6-14,77,67,56,57,53,50,93,70,46,29.94,29.77,29.61,10,10,10,20,8,28,0.05,5,Rain,342
2013-6-15,79,67,55,58,54,51,86,63,39,30.04,29.99,29.95,10,10,10,16,6,22,0.00,0,Rain,270
2013-6-16,82,70,58,65,59,55,90,68,45,30.01,29.91,29.81,10,10,7,24,7,37,T,3,Rain,244
2013-6-17,87,75,62,65,61,53,93,63,32,29.93,29.89,29.84,10,9,5,16,6,25,0.00,1,,241
2013-6-18,82,71,60,70,64,59,97,78,58,29.91,29.87,29.81,10,8,1,13,3,15,0.25,4,Rain,59
2013-6-19,78,68,57,59,52,45,93,63,32,30.16,30.03,29.91,10,10,10,15,4,18,0.00,2,,27
2013-6-20,81,67,52,58,54,49,89,66,43,30.27,30.24,30.18,10,10,10,14,5,17,0.00,0,,226
2013-6-21,83,70,56,59,55,51,90,66,42,30.30,30.27,30.22,10,10,10,14,6,20,0.00,0,,217
2013-6-22,85,71,56,66,60,50,93,71,48,30.26,30.22,30.12,10,10,9,15,6,21,0.00,3,,243
2013-6-23,88,76,63,70,66,61,93,74,55,30.20,30.13,30.05,10,10,6,13,6,17,0.00,2,,212
2013-6-24,92,80,68,71,68,61,100,71,41,30.09,30.05,29.97,10,9,2,21,5,26,0.01,1,Rain-Thunderstorm,243
2013-6-25,91,78,64,71,68,65,100,74,47,30.01,29.93,29.84,10,8,2,22,7,29,T,1,Rain,254
2013-6-26,86,76,66,68,66,63,93,74,55,29.88,29.85,29.81,10,10,8,15,6,20,0.00,1,,257
2013-6-27,89,78,67,72,69,65,93,72,51,29.81,29.66,29.53,10,8,2,18,6,24,0.33,5,Rain-Thunderstorm,151
2013-6-28,85,76,66,70,67,63,93,74,55,29.56,29.53,29.48,10,10,6,16,6,23,T,6,Rain,243
2013-6-29,84,75,66,66,64,60,93,69,44,29.70,29.59,29.50,10,9,4,14,4,18,0.00,4,,252
2013-6-30,83,76,68,72,68,64,84,71,58,29.90,29.79,29.71,10,10,9,17,5,23,0.02,4,Rain,156